Time;durP1;ratioP1;P1;durP2;ratioP2;P2;SDS_P1;SDS_P2;PMS_P1;PMS_P2;Temp;Humidity;BMP_temperature;BMP_pressure;BME280_temperature;BME280_humidity;BME280_pressure;Samples;Min_cycle;Max_cycle;Signal;HPM_P1;HPM_P2
2022/07/09 00:00:15;;;;;;;5.37;3.60;;;16.50;99.90;;;;;;4993734;28;20262;-63
2022/07/09 00:02:42;;;;;;;7.13;3.60;;;16.50;99.90;;;;;;4993572;28;20231;-62
2022/07/09 00:05:10;;;;;;;7.33;3.87;;;16.50;99.90;;;;;;4993723;28;20670;-63
2022/07/09 00:07:38;;;;;;;8.30;4.43;;;16.50;99.90;;;;;;4993065;28;20258;-63
2022/07/09 00:10:05;;;;;;;7.63;4.00;;;16.40;99.90;;;;;;4993356;28;20694;-63
2022/07/09 00:12:32;;;;;;;10.07;4.53;;;16.40;99.90;;;;;;4993711;28;20208;-63
2022/07/09 00:14:59;;;;;;;5.93;4.20;;;16.40;99.90;;;;;;4993440;28;20203;-63
2022/07/09 00:17:26;;;;;;;6.93;3.87;;;16.30;99.90;;;;;;4993048;28;20285;-63
2022/07/09 00:19:53;;;;;;;5.57;3.97;;;16.30;99.90;;;;;;4993469;28;20208;-63
2022/07/09 00:22:19;;;;;;;4.83;4.13;;;16.30;99.90;;;;;;4993086;28;20229;-63
2022/07/09 00:24:47;;;;;;;5.67;3.80;;;16.30;99.90;;;;;;4993496;28;20737;-63
2022/07/09 00:27:14;;;;;;;5.17;4.53;;;16.30;99.90;;;;;;4992573;28;20688;-62
2022/07/09 00:29:41;;;;;;;6.50;4.47;;;16.30;99.90;;;;;;4993412;28;20266;-63
2022/07/09 00:32:08;;;;;;;5.90;4.17;;;16.20;99.90;;;;;;4993180;28;20628;-63
2022/07/09 00:34:35;;;;;;;8.33;4.43;;;16.20;99.90;;;;;;4993438;28;20236;-62
2022/07/09 00:37:01;;;;;;;6.20;4.63;;;16.20;99.90;;;;;;4993449;28;20211;-63
2022/07/09 00:39:28;;;;;;;5.33;4.20;;;16.20;99.90;;;;;;4993823;28;20231;-63
2022/07/09 00:42:05;;;;;;;9.23;4.70;;;16.20;99.90;;;;;;4993218;28;20221;-62
2022/07/09 00:44:31;;;;;;;5.97;4.80;;;16.10;99.90;;;;;;4992870;28;20207;-64
2022/07/09 00:46:58;;;;;;;6.67;4.77;;;16.20;99.90;;;;;;4992288;28;20258;-63
2022/07/09 00:49:25;;;;;;;6.73;4.87;;;16.10;99.90;;;;;;4992727;28;20608;-63
2022/07/09 00:51:53;;;;;;;4.90;4.50;;;16.10;99.90;;;;;;4992676;28;20258;-63
2022/07/09 00:54:19;;;;;;;4.87;4.23;;;16.10;99.90;;;;;;4992683;28;20627;-63
2022/07/09 00:56:47;;;;;;;5.60;4.40;;;16.10;99.90;;;;;;4992489;28;20211;-63
2022/07/09 00:59:15;;;;;;;7.40;4.90;;;16.00;99.90;;;;;;4992597;28;20294;-63
2022/07/09 01:01:42;;;;;;;10.23;4.50;;;16.00;99.90;;;;;;4992691;28;20212;-63
2022/07/09 01:04:08;;;;;;;6.67;4.90;;;15.90;99.90;;;;;;4992457;28;20258;-63
2022/07/09 01:06:35;;;;;;;5.17;4.67;;;15.90;99.90;;;;;;4992505;28;20196;-63
2022/07/09 01:09:02;;;;;;;7.03;4.83;;;15.90;99.90;;;;;;4992605;28;20228;-63
2022/07/09 01:11:30;;;;;;;6.53;4.70;;;15.90;99.90;;;;;;4992735;28;20215;-63
2022/07/09 01:13:56;;;;;;;7.20;5.00;;;15.90;99.90;;;;;;4992422;28;20278;-63
2022/07/09 01:16:31;;;;;;;7.57;5.50;;;15.80;99.90;;;;;;4992207;28;20269;-63
2022/07/09 01:18:58;;;;;;;7.00;4.73;;;15.80;99.90;;;;;;4992395;28;20602;-63
2022/07/09 01:21:26;;;;;;;6.17;4.93;;;15.80;99.90;;;;;;4992542;28;20265;-63
2022/07/09 01:23:53;;;;;;;5.47;4.83;;;15.80;99.90;;;;;;4992484;28;20273;-62
2022/07/09 01:26:20;;;;;;;9.70;4.80;;;15.80;99.90;;;;;;4992251;28;20204;-63
2022/07/09 01:28:47;;;;;;;9.80;5.13;;;15.70;99.90;;;;;;4992272;28;20244;-63
2022/07/09 01:31:14;;;;;;;10.13;5.70;;;15.70;99.90;;;;;;4992203;28;20678;-62
2022/07/09 01:33:41;;;;;;;11.37;5.50;;;15.70;99.90;;;;;;4992253;28;20254;-62
2022/07/09 01:36:08;;;;;;;7.50;5.20;;;15.70;99.90;;;;;;4992081;28;20294;-63
2022/07/09 01:38:37;;;;;;;6.27;5.37;;;15.60;99.90;;;;;;4992109;28;20224;-63
2022/07/09 01:41:04;;;;;;;9.37;5.77;;;15.60;99.90;;;;;;4992355;28;20207;-64
2022/07/09 01:43:33;;;;;;;6.93;5.27;;;15.60;99.90;;;;;;4992078;28;20238;-63
2022/07/09 01:46:00;;;;;;;8.37;6.33;;;15.50;99.90;;;;;;4991767;28;20290;-63
2022/07/09 01:48:26;;;;;;;7.63;5.90;;;15.50;99.90;;;;;;4992521;28;20587;-62
2022/07/09 01:50:54;;;;;;;9.57;6.37;;;15.50;99.90;;;;;;4992187;28;20266;-63
2022/07/09 01:53:21;;;;;;;8.43;6.37;;;15.50;99.90;;;;;;4992258;28;20653;-63
2022/07/09 01:55:49;;;;;;;7.67;6.23;;;15.40;99.90;;;;;;4992328;28;20231;-63
2022/07/09 01:58:15;;;;;;;8.23;6.27;;;15.40;99.90;;;;;;4993733;28;20719;-63
2022/07/09 02:00:42;;;;;;;9.53;6.53;;;15.40;99.90;;;;;;4995887;28;20214;-63
2022/07/09 02:03:09;;;;;;;6.83;6.20;;;15.40;99.90;;;;;;4995940;28;20227;-63
2022/07/09 02:05:35;;;;;;;8.93;6.17;;;15.40;99.90;;;;;;4995949;28;20207;-62
2022/07/09 02:08:02;;;;;;;11.43;5.97;;;15.40;99.90;;;;;;4995446;28;20232;-62
2022/07/09 02:10:30;;;;;;;8.97;6.57;;;15.40;99.90;;;;;;4995797;28;20211;-63
2022/07/09 02:12:58;;;;;;;10.53;6.73;;;15.40;99.90;;;;;;4995496;28;20671;-62
2022/07/09 02:15:24;;;;;;;7.90;6.60;;;15.40;99.90;;;;;;4995676;28;20671;-63
2022/07/09 02:17:51;;;;;;;8.97;6.93;;;15.50;99.90;;;;;;4995438;28;20275;-63
2022/07/09 02:20:17;;;;;;;9.83;6.70;;;15.50;99.90;;;;;;4998411;28;20244;-63
2022/07/09 02:22:44;;;;;;;10.80;6.63;;;15.50;99.90;;;;;;5000760;28;20235;-63
2022/07/09 02:25:11;;;;;;;10.27;6.60;;;15.50;99.90;;;;;;4999848;28;20258;-64
2022/07/09 02:27:37;;;;;;;11.43;6.80;;;15.60;99.90;;;;;;4994730;28;20291;-64
2022/07/09 02:30:07;;;;;;;8.90;6.17;;;15.60;99.90;;;;;;4995514;28;20215;-63
2022/07/09 02:32:33;;;;;;;10.87;6.70;;;15.60;99.90;;;;;;4995499;28;20234;-63
2022/07/09 02:35:00;;;;;;;8.83;6.70;;;15.60;99.90;;;;;;4995281;28;20208;-63
2022/07/09 02:37:27;;;;;;;8.80;7.13;;;15.70;99.90;;;;;;4994862;28;20239;-64
2022/07/09 02:39:53;;;;;;;10.33;6.83;;;15.70;99.90;;;;;;4995136;28;20203;-63
2022/07/09 02:42:20;;;;;;;13.30;7.10;;;15.70;99.90;;;;;;4994943;28;20231;-63
2022/07/09 02:44:47;;;;;;;11.97;7.17;;;15.80;99.90;;;;;;4995195;28;20255;-63
2022/07/09 02:47:15;;;;;;;9.97;7.20;;;15.80;99.90;;;;;;4995074;28;20207;-63
2022/07/09 02:49:41;;;;;;;11.50;6.50;;;15.80;99.90;;;;;;4994898;28;20745;-64
2022/07/09 02:52:08;;;;;;;10.43;6.60;;;15.80;99.90;;;;;;4994912;28;20212;-64
2022/07/09 02:54:34;;;;;;;8.93;6.40;;;15.90;99.90;;;;;;4994736;28;20208;-63
2022/07/09 02:57:01;;;;;;;14.43;6.90;;;15.90;99.90;;;;;;4994383;28;20212;-63
2022/07/09 02:59:28;;;;;;;9.53;6.93;;;15.90;99.90;;;;;;4994890;28;20227;-64
2022/07/09 03:01:55;;;;;;;11.53;7.47;;;15.90;99.90;;;;;;4995032;28;20210;-63
2022/07/09 03:04:23;;;;;;;11.13;7.37;;;16.00;99.90;;;;;;4994878;28;20291;-63
2022/07/09 03:06:49;;;;;;;12.00;6.90;;;16.00;99.90;;;;;;4994479;28;20211;-62
2022/07/09 03:09:16;;;;;;;9.87;7.07;;;16.00;99.90;;;;;;4994265;28;20286;-63
2022/07/09 03:11:43;;;;;;;11.13;7.13;;;16.00;99.90;;;;;;4994730;28;20790;-64
2022/07/09 03:14:09;;;;;;;12.40;7.23;;;16.00;99.90;;;;;;4994793;28;20207;-64
2022/07/09 03:16:36;;;;;;;9.37;7.23;;;16.00;99.90;;;;;;4994189;28;20207;-63
2022/07/09 03:19:03;;;;;;;9.60;6.77;;;16.00;99.90;;;;;;4994451;28;20231;-63
2022/07/09 03:21:31;;;;;;;8.83;6.87;;;16.00;99.90;;;;;;4994052;28;20701;-63
2022/07/09 03:23:57;;;;;;;11.13;7.20;;;16.10;99.90;;;;;;4994224;28;20270;-65
2022/07/09 03:26:24;;;;;;;10.33;7.73;;;16.10;99.90;;;;;;4994121;28;20204;-62
2022/07/09 03:28:51;;;;;;;10.67;7.47;;;16.10;99.90;;;;;;4994267;28;20224;-63
2022/07/09 03:31:17;;;;;;;12.20;7.00;;;16.10;99.90;;;;;;4994266;28;20634;-62
2022/07/09 03:33:44;;;;;;;11.80;7.20;;;16.10;99.90;;;;;;4994409;28;20629;-62
2022/07/09 03:36:11;;;;;;;10.43;7.20;;;16.20;99.90;;;;;;4993673;28;20207;-63
2022/07/09 03:38:39;;;;;;;11.97;8.93;;;16.10;99.90;;;;;;4993911;28;20231;-62
2022/07/09 03:41:05;;;;;;;12.50;8.60;;;16.00;99.90;;;;;;4994154;28;20226;-63
2022/07/09 03:43:32;;;;;;;11.73;8.40;;;16.00;99.90;;;;;;4993943;28;20231;-62
2022/07/09 03:45:59;;;;;;;14.97;8.87;;;16.00;99.90;;;;;;4993875;28;20207;-63
2022/07/09 03:48:25;;;;;;;12.60;8.50;;;16.00;99.90;;;;;;4993823;28;20646;-63
2022/07/09 03:50:52;;;;;;;10.07;7.87;;;16.00;99.90;;;;;;4993788;28;20211;-63
2022/07/09 03:53:19;;;;;;;15.20;8.13;;;16.10;99.90;;;;;;4993825;28;20211;-63
2022/07/09 03:55:47;;;;;;;9.67;7.53;;;16.10;99.90;;;;;;4993915;28;20212;-62
2022/07/09 03:58:14;;;;;;;15.67;10.13;;;16.20;99.90;;;;;;4993172;28;20232;-63
2022/07/09 04:00:40;;;;;;;15.87;8.83;;;16.20;99.90;;;;;;4993742;28;20274;-63
2022/07/09 04:03:07;;;;;;;14.33;7.50;;;16.20;99.90;;;;;;4993429;28;20302;-63
2022/07/09 04:05:34;;;;;;;10.90;8.10;;;16.20;99.90;;;;;;4993493;28;20258;-62
2022/07/09 04:08:00;;;;;;;11.17;8.20;;;16.20;99.90;;;;;;4993104;28;20714;-62
2022/07/09 04:10:27;;;;;;;11.47;8.00;;;16.20;99.90;;;;;;4993517;28;20268;-62
2022/07/09 04:12:55;;;;;;;12.13;7.77;;;16.20;99.90;;;;;;4993800;28;20204;-62
2022/07/09 04:15:22;;;;;;;12.70;7.43;;;16.20;99.90;;;;;;4993689;28;20215;-62
2022/07/09 04:17:49;;;;;;;11.13;7.83;;;16.20;99.90;;;;;;4992956;28;20294;-63
2022/07/09 04:20:15;;;;;;;10.67;7.13;;;16.20;99.90;;;;;;4992565;28;20734;-62
2022/07/09 04:22:42;;;;;;;14.20;7.70;;;16.30;99.90;;;;;;4993249;28;20265;-62
2022/07/09 04:25:09;;;;;;;11.23;6.90;;;16.40;99.90;;;;;;4993194;28;20211;-63
2022/07/09 04:27:36;;;;;;;10.77;7.10;;;16.50;99.90;;;;;;4992910;28;20239;-62
2022/07/09 04:30:05;;;;;;;10.43;6.33;;;16.50;99.90;;;;;;4993196;28;20241;-63
2022/07/09 04:32:31;;;;;;;7.90;6.57;;;16.60;99.90;;;;;;4993095;28;20216;-63
2022/07/09 04:34:58;;;;;;;9.03;6.90;;;16.70;99.90;;;;;;4993149;28;20291;-62
2022/07/09 04:37:24;;;;;;;12.37;6.73;;;16.70;99.90;;;;;;4993242;28;20211;-62
2022/07/09 04:39:51;;;;;;;9.23;6.33;;;16.80;99.90;;;;;;4993182;28;20557;-62
2022/07/09 04:42:19;;;;;;;9.33;6.57;;;16.80;99.90;;;;;;4992860;28;20210;-62
2022/07/09 04:44:46;;;;;;;10.50;7.67;;;16.80;99.90;;;;;;4992874;28;20231;-62
2022/07/09 04:47:14;;;;;;;11.77;8.20;;;16.70;99.90;;;;;;4992448;28;20212;-62
2022/07/09 04:49:41;;;;;;;9.03;7.80;;;16.70;99.90;;;;;;4992829;28;20604;-62
2022/07/09 04:52:08;;;;;;;8.97;7.37;;;16.80;99.90;;;;;;4993091;28;20258;-62
2022/07/09 04:54:35;;;;;;;12.43;7.50;;;16.90;99.90;;;;;;4992975;28;20254;-62
2022/07/09 04:57:02;;;;;;;10.60;7.10;;;16.90;99.90;;;;;;4992331;28;20744;-62
2022/07/09 04:59:28;;;;;;;9.77;7.00;;;17.00;99.90;;;;;;4992716;28;20294;-62
2022/07/09 05:01:55;;;;;;;9.87;7.30;;;17.00;99.90;;;;;;4992713;28;20258;-62
2022/07/09 05:04:23;;;;;;;10.40;8.10;;;16.90;99.90;;;;;;4992548;28;20772;-63
2022/07/09 05:06:49;;;;;;;10.63;7.30;;;16.80;99.90;;;;;;4992272;28;20219;-62
2022/07/09 05:09:16;;;;;;;10.97;7.60;;;16.70;99.90;;;;;;4992609;28;20227;-62
2022/07/09 05:11:43;;;;;;;14.67;7.90;;;16.70;99.90;;;;;;4992412;28;20710;-62
2022/07/09 05:14:09;;;;;;;10.23;7.57;;;16.70;99.90;;;;;;4992524;28;20203;-62
2022/07/09 05:16:36;;;;;;;13.30;7.87;;;16.70;99.90;;;;;;4992399;28;20235;-62
2022/07/09 05:19:03;;;;;;;9.73;7.13;;;16.60;99.90;;;;;;4992348;28;20231;-62
2022/07/09 05:21:31;;;;;;;12.77;7.70;;;16.60;99.90;;;;;;4992541;28;20235;-63
2022/07/09 05:23:57;;;;;;;10.43;7.30;;;16.70;99.90;;;;;;4992444;28;20232;-62
2022/07/09 05:26:24;;;;;;;11.93;7.77;;;16.80;99.90;;;;;;4992038;28;20229;-63
2022/07/09 05:28:51;;;;;;;9.60;7.43;;;16.90;99.90;;;;;;4992183;28;20638;-62
2022/07/09 05:31:17;;;;;;;10.03;6.77;;;17.00;99.90;;;;;;4992933;28;20216;-63
2022/07/09 05:33:44;;;;;;;11.83;6.03;;;17.00;99.90;;;;;;4996611;28;20207;-62
2022/07/09 05:36:11;;;;;;;8.07;4.83;;;17.10;99.90;;;;;;4996334;28;20212;-63
2022/07/09 05:38:38;;;;;;;9.70;5.50;;;17.20;99.90;;;;;;4996257;28;20228;-62
2022/07/09 05:41:07;;;;;;;7.00;5.10;;;17.20;99.90;;;;;;4996397;28;20650;-62
2022/07/09 05:43:33;;;;;;;6.63;4.90;;;17.30;99.90;;;;;;4995996;28;20235;-62
2022/07/09 05:46:00;;;;;;;7.40;4.80;;;17.40;99.90;;;;;;4996038;28;20207;-62
2022/07/09 05:48:27;;;;;;;8.57;4.73;;;17.50;99.90;;;;;;4996277;28;20235;-62
2022/07/09 05:50:54;;;;;;;7.93;4.67;;;17.60;99.90;;;;;;4996272;28;20215;-63
2022/07/09 05:53:21;;;;;;;6.10;4.60;;;17.50;99.90;;;;;;4996996;28;20290;-63
2022/07/09 05:55:49;;;;;;;6.27;4.40;;;17.60;99.90;;;;;;4996632;28;20277;-63
2022/07/09 05:58:16;;;;;;;6.60;4.03;;;17.70;99.90;;;;;;4995850;28;20285;-63
2022/07/09 06:00:43;;;;;;;7.30;4.10;;;17.70;99.90;;;;;;4996084;28;20417;-64
2022/07/09 06:03:09;;;;;;;7.23;3.97;;;17.80;99.90;;;;;;4995865;28;20203;-63
2022/07/09 06:05:36;;;;;;;7.03;3.47;;;17.60;99.90;;;;;;4995802;28;20671;-64
2022/07/09 06:08:03;;;;;;;5.93;3.10;;;17.60;99.90;;;;;;4995419;28;20235;-63
2022/07/09 06:10:29;;;;;;;5.37;3.20;;;17.70;99.90;;;;;;4995630;28;20203;-63
2022/07/09 06:12:57;;;;;;;5.30;2.90;;;17.70;99.90;;;;;;4995989;28;20211;-63
2022/07/09 06:15:24;;;;;;;4.60;2.60;;;17.80;99.90;;;;;;4995828;28;20200;-63
2022/07/09 06:17:51;;;;;;;5.57;2.37;;;18.00;99.90;;;;;;4995632;28;20223;-62
2022/07/09 06:20:18;;;;;;;3.53;2.13;;;18.00;99.90;;;;;;4995676;28;20258;-63
2022/07/09 06:22:44;;;;;;;5.07;2.70;;;18.10;99.90;;;;;;4995637;28;20234;-63
2022/07/09 06:25:11;;;;;;;2.57;2.07;;;18.20;99.90;;;;;;4995315;28;20761;-63
2022/07/09 06:27:40;;;;;;;3.73;2.33;;;18.30;99.90;;;;;;4994952;28;20289;-62
2022/07/09 06:30:08;;;;;;;5.20;2.30;;;18.30;99.90;;;;;;4995408;28;20208;-63
2022/07/09 06:32:35;;;;;;;5.03;2.27;;;18.40;99.90;;;;;;4995501;28;20211;-63
2022/07/09 06:35:02;;;;;;;4.10;2.77;;;18.50;99.90;;;;;;4995249;28;20674;-63
2022/07/09 06:37:29;;;;;;;3.13;2.30;;;18.60;99.90;;;;;;4994755;28;20322;-63
2022/07/09 06:39:57;;;;;;;4.67;2.43;;;18.70;99.90;;;;;;4995152;28;20215;-63
2022/07/09 06:42:24;;;;;;;4.43;2.50;;;18.70;99.90;;;;;;4995166;28;20211;-63
2022/07/09 06:44:50;;;;;;;3.87;2.47;;;18.70;97.70;;;;;;4994661;28;20234;-63
2022/07/09 06:47:18;;;;;;;4.93;2.87;;;18.90;97.40;;;;;;4994733;28;20207;-63
2022/07/09 06:49:46;;;;;;;4.40;2.73;;;19.00;81.60;;;;;;4994894;28;20208;-63
2022/07/09 06:52:13;;;;;;;4.97;2.47;;;19.20;51.80;;;;;;4994796;28;20307;-63
2022/07/09 06:54:39;;;;;;;4.40;3.10;;;19.30;50.40;;;;;;4995128;28;20208;-63
2022/07/09 06:57:09;;;;;;;6.20;3.00;;;19.40;1.00;;;;;;4994543;28;20247;-63
2022/07/09 06:59:35;;;;;;;4.17;2.10;;;19.10;1.00;;;;;;4995015;28;20218;-63
2022/07/09 07:02:02;;;;;;;6.90;3.00;;;19.20;99.90;;;;;;4994926;28;20211;-64
2022/07/09 07:04:30;;;;;;;5.03;2.93;;;19.00;99.90;;;;;;4994731;28;20227;-63
2022/07/09 07:06:57;;;;;;;5.43;2.30;;;19.20;1.00;;;;;;4994093;28;20215;-63
2022/07/09 07:09:23;;;;;;;4.80;2.20;;;19.30;80.00;;;;;;4994771;28;20496;-63
2022/07/09 07:11:50;;;;;;;4.60;2.57;;;19.30;1.00;;;;;;4994709;28;20211;-63
2022/07/09 07:14:17;;;;;;;4.83;2.37;;;19.30;1.00;;;;;;4994487;28;20200;-64
2022/07/09 07:16:45;;;;;;;3.63;2.37;;;19.30;1.00;;;;;;4994352;28;20208;-63
2022/07/09 07:19:11;;;;;;;5.67;1.87;;;19.60;99.90;;;;;;4994171;28;20231;-64
2022/07/09 07:21:40;;;;;;;4.57;2.10;;;19.60;99.90;;;;;;4994632;28;20636;-64
2022/07/09 07:24:07;;;;;;;3.80;2.13;;;19.70;99.90;;;;;;4994212;28;20245;-63
2022/07/09 07:26:35;;;;;;;3.47;2.00;;;19.80;1.00;;;;;;4994192;28;20215;-64
2022/07/09 07:29:01;;;;;;;4.30;1.93;;;19.60;99.90;;;;;;4994332;28;20274;-64
2022/07/09 07:31:28;;;;;;;5.30;2.47;;;19.70;99.90;;;;;;4994338;28;20262;-64
2022/07/09 07:33:55;;;;;;;4.83;2.50;;;20.10;91.70;;;;;;4994048;28;20270;-64
2022/07/09 07:36:22;;;;;;;3.70;1.80;;;20.40;1.00;;;;;;4994050;28;20211;-65
2022/07/09 07:38:50;;;;;;;4.00;2.17;;;20.60;99.90;;;;;;4994248;28;20231;-63
2022/07/09 07:41:18;;;;;;;5.10;2.23;;;20.80;99.90;;;;;;4994195;28;20274;-64
2022/07/09 07:43:45;;;;;;;4.60;1.83;;;20.40;99.90;;;;;;4993971;28;20211;-64
2022/07/09 07:46:12;;;;;;;5.27;2.23;;;20.50;99.90;;;;;;4993511;28;20303;-63
2022/07/09 07:48:41;;;;;;;5.57;2.33;;;20.40;99.90;;;;;;4993711;28;20228;-63
2022/07/09 07:51:08;;;;;;;5.27;2.87;;;20.50;99.90;;;;;;4993928;28;20212;-64
2022/07/09 07:53:35;;;;;;;3.77;2.30;;;20.70;99.90;;;;;;4993865;28;20671;-64
2022/07/09 07:56:03;;;;;;;5.57;2.50;;;20.90;99.90;;;;;;4992288;28;20211;-64
2022/07/09 07:58:30;;;;;;;5.83;2.53;;;21.10;84.80;;;;;;4984900;28;20224;-64
2022/07/09 08:00:57;;;;;;;6.77;2.70;;;21.20;1.00;;;;;;4992555;28;20204;-65
2022/07/09 08:03:23;;;;;;;8.67;3.10;;;21.20;1.00;;;;;;4992453;28;20211;-65
2022/07/09 08:05:50;;;;;;;7.77;3.20;;;21.20;1.00;;;;;;4993129;28;20228;-66
2022/07/09 08:08:18;;;;;;;6.83;2.77;;;21.50;1.00;;;;;;4992936;28;20231;-63
2022/07/09 08:10:44;;;;;;;7.37;3.13;;;21.60;1.00;;;;;;4993028;28;20214;-63
2022/07/09 08:13:12;;;;;;;8.40;2.50;;;21.60;1.00;;;;;;4992962;28;20212;-66
2022/07/09 08:15:39;;;;;;;7.80;2.20;;;21.50;1.00;;;;;;4993065;28;20200;-65
2022/07/09 08:18:08;;;;;;;5.40;2.10;;;21.20;1.00;;;;;;4992730;28;20313;-64
2022/07/09 08:20:36;;;;;;;5.10;2.00;;;21.20;99.90;;;;;;4992761;28;20203;-65
2022/07/09 08:23:03;;;;;;;7.17;2.20;;;21.60;99.90;;;;;;4992854;28;20265;-63
2022/07/09 08:25:29;;;;;;;3.77;2.30;;;21.70;99.90;;;;;;4992927;28;20639;-64
2022/07/09 08:27:56;;;;;;;3.37;2.00;;;21.80;99.90;;;;;;4992102;28;20236;-64
2022/07/09 08:30:24;;;;;;;3.67;1.57;;;22.00;99.90;;;;;;4992518;28;20620;-63
2022/07/09 08:32:51;;;;;;;5.50;2.20;;;22.20;99.90;;;;;;4992747;28;20266;-63
2022/07/09 08:35:17;;;;;;;5.37;2.20;;;22.20;99.90;;;;;;4992645;28;20200;-63
2022/07/09 08:37:44;;;;;;;2.97;1.80;;;22.00;99.90;;;;;;4992305;28;20772;-62
2022/07/09 08:40:11;;;;;;;4.80;2.33;;;22.10;99.90;;;;;;4992212;28;20204;-63
2022/07/09 08:42:38;;;;;;;5.63;2.37;;;22.40;99.90;;;;;;4992591;28;20212;-63
2022/07/09 08:45:09;;;;;;;5.83;2.13;;;22.70;99.90;;;;;;4992446;28;20594;-66
2022/07/09 08:47:37;;;;;;;7.30;2.30;;;22.90;99.90;;;;;;4991747;28;20733;-66
2022/07/09 08:50:05;;;;;;;3.47;1.93;;;22.60;99.90;;;;;;4992222;28;20293;-65
2022/07/09 08:52:33;;;;;;;3.00;1.60;;;22.50;99.90;;;;;;4992275;28;20258;-66
2022/07/09 08:55:00;;;;;;;3.10;1.40;;;22.60;99.90;;;;;;4992412;28;20270;-66
2022/07/09 08:57:26;;;;;;;4.33;1.80;;;22.40;99.90;;;;;;4992051;28;20258;-65
2022/07/09 08:59:53;;;;;;;4.77;2.20;;;22.50;99.90;;;;;;4992384;28;20258;-65
2022/07/09 09:02:20;;;;;;;4.37;2.10;;;22.50;99.90;;;;;;4992162;28;20211;-65
2022/07/09 09:04:48;;;;;;;5.37;2.07;;;22.30;99.90;;;;;;4990809;28;20314;-64
2022/07/09 09:07:21;;;;;;;4.80;1.50;;;22.60;99.90;;;;;;4987801;28;20223;-65
2022/07/09 09:09:48;;;;;;;5.07;1.70;;;22.70;99.90;;;;;;4985122;28;20216;-66
2022/07/09 09:12:15;;;;;;;4.63;1.47;;;23.10;99.90;;;;;;4992071;28;20211;-63
2022/07/09 09:14:49;;;;;;;3.13;1.30;;;23.30;99.90;;;;;;4991859;28;20294;-63
2022/07/09 09:17:16;;;;;;;3.23;1.40;;;23.20;99.90;;;;;;4991475;28;20298;-63
2022/07/09 09:19:43;;;;;;;3.23;1.50;;;23.50;99.90;;;;;;4991711;28;20211;-63
2022/07/09 09:22:11;;;;;;;2.10;1.30;;;23.60;99.90;;;;;;4991874;28;20265;-63
2022/07/09 09:24:37;;;;;;;4.17;1.60;;;23.30;99.90;;;;;;4992099;28;20227;-64
2022/07/09 09:27:05;;;;;;;3.63;1.30;;;23.00;99.90;;;;;;4993321;28;20215;-63
2022/07/09 09:29:33;;;;;;;2.77;1.47;;;23.20;99.90;;;;;;4993183;28;20214;-63
2022/07/09 09:32:10;;;;;;;3.63;1.43;;;23.40;99.90;;;;;;4991587;28;20749;-63
2022/07/09 09:34:37;;;;;;;4.23;1.40;;;23.50;99.90;;;;;;4991365;28;20234;-63
2022/07/09 09:37:04;;;;;;;3.87;1.43;;;23.40;99.90;;;;;;4991586;28;20219;-63
2022/07/09 09:39:33;;;;;;;2.17;1.17;;;23.40;99.90;;;;;;4991688;28;20330;-63
2022/07/09 09:42:02;;;;;;;2.97;1.30;;;23.60;99.90;;;;;;4991599;28;20203;-63
2022/07/09 09:44:31;;;;;;;3.57;1.30;;;23.40;99.90;;;;;;4987838;28;20219;-66
2022/07/09 09:46:58;;;;;;;4.63;1.37;;;23.40;99.90;;;;;;4991314;28;20207;-62
2022/07/09 09:49:25;;;;;;;2.57;1.40;;;22.80;99.90;;;;;;4991417;28;20220;-62
2022/07/09 09:51:58;;;;;;;5.67;1.63;;;22.90;99.90;;;;;;4992069;28;20631;-64
2022/07/09 09:54:25;;;;;;;2.67;1.57;;;23.00;99.90;;;;;;4991624;28;20243;-64
2022/07/09 09:56:54;;;;;;;4.00;1.83;;;23.10;99.90;;;;;;4991725;28;20208;-62
2022/07/09 09:59:21;;;;;;;3.07;1.80;;;23.30;99.90;;;;;;4991784;28;20231;-62
2022/07/09 10:01:48;;;;;;;5.73;2.20;;;23.60;99.90;;;;;;4991620;28;20204;-64
2022/07/09 10:04:16;;;;;;;3.77;1.83;;;23.70;99.90;;;;;;4992052;28;20587;-66
2022/07/09 10:06:43;;;;;;;4.17;1.57;;;23.60;99.90;;;;;;4991461;28;20303;-64
2022/07/09 10:09:13;;;;;;;5.40;1.87;;;23.70;99.90;;;;;;4991800;28;20650;-63
2022/07/09 10:11:41;;;;;;;6.63;2.40;;;23.10;99.90;;;;;;4991765;28;20632;-61
2022/07/09 10:14:15;;;;;;;6.17;2.53;;;22.80;99.90;;;;;;4991614;28;20207;-60
2022/07/09 10:16:42;;;;;;;5.47;2.30;;;22.70;99.90;;;;;;4991975;28;20234;-63
2022/07/09 10:19:09;;;;;;;9.73;2.93;;;22.90;99.90;;;;;;4993943;28;20231;-62
2022/07/09 10:21:37;;;;;;;4.30;2.07;;;23.20;99.90;;;;;;4995717;28;20261;-61
2022/07/09 10:24:06;;;;;;;3.33;2.07;;;23.50;99.90;;;;;;4995371;28;20633;-62
2022/07/09 10:26:38;;;;;;;3.30;1.90;;;23.60;99.90;;;;;;4995095;28;20226;-61
2022/07/09 10:29:19;;;;;;;5.17;1.90;;;23.70;99.90;;;;;;4994749;28;20235;-63
2022/07/09 10:31:47;;;;;;;4.27;2.20;;;23.60;99.90;;;;;;4994637;28;20211;-64
2022/07/09 10:34:36;;;;;;;5.57;1.83;;;23.50;99.90;;;;;;4994839;28;20200;-64
2022/07/09 10:37:04;;;;;;;3.80;1.63;;;23.30;99.90;;;;;;5001859;28;20204;-64
2022/07/09 10:39:31;;;;;;;2.70;1.50;;;23.50;99.90;;;;;;5013157;28;20227;-64
2022/07/09 10:42:02;;;;;;;4.77;2.07;;;23.60;99.90;;;;;;5014692;28;20208;-63
2022/07/09 10:44:35;;;;;;;2.87;1.50;;;23.70;99.90;;;;;;5013689;28;20211;-64
2022/07/09 10:47:02;;;;;;;4.97;1.50;;;23.60;99.90;;;;;;5014022;28;20223;-62
2022/07/09 10:49:29;;;;;;;1.43;1.10;;;23.70;99.90;;;;;;5014078;28;20227;-62
2022/07/09 10:51:58;;;;;;;2.87;1.33;;;23.70;99.90;;;;;;5013109;28;20207;-62
2022/07/09 10:54:25;;;;;;;2.10;0.87;;;23.80;99.90;;;;;;5014472;28;20210;-62
2022/07/09 10:56:52;;;;;;;1.33;1.07;;;23.70;99.90;;;;;;5013775;28;20674;-62
2022/07/09 10:59:18;;;;;;;0.97;0.73;;;23.60;99.90;;;;;;5014483;28;20318;-62
2022/07/09 11:01:46;;;;;;;2.50;1.10;;;23.60;99.90;;;;;;5014659;28;20265;-61
2022/07/09 11:04:27;;;;;;;1.83;1.00;;;23.40;99.90;;;;;;5013719;28;20618;-63
2022/07/09 11:06:54;;;;;;;2.30;1.10;;;23.50;99.90;;;;;;5013982;28;20338;-61
2022/07/09 11:09:21;;;;;;;3.03;0.93;;;23.40;99.90;;;;;;4995348;28;20224;-62
2022/07/09 11:11:48;;;;;;;1.13;1.00;;;23.20;99.90;;;;;;4994655;28;20234;-62
2022/07/09 11:14:15;;;;;;;1.57;1.10;;;23.00;99.90;;;;;;4994425;28;20215;-61
2022/07/09 11:16:42;;;;;;;3.37;1.40;;;23.10;99.90;;;;;;4994231;28;20254;-62
2022/07/09 11:19:16;;;;;;;4.30;1.70;;;23.20;99.90;;;;;;4994115;28;20370;-62
2022/07/09 11:21:43;;;;;;;1.43;1.13;;;23.40;99.90;;;;;;4994464;28;20203;-61
2022/07/09 11:24:15;;;;;;;2.10;1.10;;;23.60;99.90;;;;;;4994291;28;20212;-61
2022/07/09 11:26:42;;;;;;;5.13;1.60;;;23.60;99.90;;;;;;4994039;28;20302;-62
2022/07/09 11:29:09;;;;;;;2.57;1.43;;;23.80;99.90;;;;;;4993841;28;20862;-61
2022/07/09 11:31:36;;;;;;;1.40;1.07;;;24.00;99.90;;;;;;4994222;28;20222;-61
2022/07/09 11:34:12;;;;;;;1.77;1.03;;;23.90;99.90;;;;;;4994465;28;20266;-62
2022/07/09 11:36:43;;;;;;;1.60;1.07;;;23.90;99.90;;;;;;4993848;28;20667;-61
2022/07/09 11:39:10;;;;;;;2.37;0.90;;;23.90;99.90;;;;;;4993866;28;20274;-61
2022/07/09 11:41:44;;;;;;;1.10;1.00;;;24.10;99.90;;;;;;4994067;28;20237;-62
2022/07/09 11:44:11;;;;;;;2.07;1.00;;;24.20;99.90;;;;;;4994080;28;20627;-62
2022/07/09 11:46:38;;;;;;;0.97;0.63;;;24.40;99.90;;;;;;4993742;28;20231;-62
2022/07/09 11:49:15;;;;;;;2.03;1.00;;;24.20;99.90;;;;;;4993909;28;20231;-62
2022/07/09 11:51:43;;;;;;;1.70;1.03;;;24.10;99.90;;;;;;4994017;28;20422;-62
2022/07/09 11:54:10;;;;;;;1.67;1.30;;;23.90;99.90;;;;;;4993851;28;20212;-61
2022/07/09 11:56:43;;;;;;;3.23;1.20;;;23.60;99.90;;;;;;4993470;28;20204;-62
2022/07/09 11:59:10;;;;;;;2.17;1.27;;;23.30;99.90;;;;;;4993642;28;20857;-63
2022/07/09 12:01:37;;;;;;;2.10;1.23;;;22.90;99.90;;;;;;4993876;28;20208;-61
2022/07/09 12:04:04;;;;;;;1.23;1.13;;;23.00;99.90;;;;;;4993741;28;20295;-61
2022/07/09 12:06:31;;;;;;;1.50;1.30;;;22.80;99.90;;;;;;4993414;28;20223;-60
2022/07/09 12:09:04;;;;;;;2.30;1.47;;;23.00;99.90;;;;;;4993450;28;20231;-62
2022/07/09 12:11:31;;;;;;;2.60;1.10;;;23.10;99.90;;;;;;4994128;28;20208;-61
2022/07/09 12:13:58;;;;;;;2.70;1.50;;;23.00;99.90;;;;;;4984012;28;20219;-65
2022/07/09 12:16:25;;;;;;;2.30;1.70;;;22.80;99.90;;;;;;4992552;28;20199;-65
2022/07/09 12:18:51;;;;;;;3.43;1.73;;;22.60;99.90;;;;;;4980593;28;20260;-66
2022/07/09 12:21:19;;;;;;;2.57;2.20;;;22.60;99.90;;;;;;4977320;28;20208;-64
2022/07/09 12:23:45;;;;;;;3.27;1.93;;;22.40;99.90;;;;;;4973070;28;20279;-65
2022/07/09 12:26:14;;;;;;;2.53;2.33;;;22.20;99.90;;;;;;4951177;28;20236;-64
2022/07/09 12:28:41;;;;;;;2.47;2.27;;;22.20;99.90;;;;;;4962120;28;20264;-63
2022/07/09 12:31:07;;;;;;;3.07;2.40;;;22.10;99.90;;;;;;4079667;28;10000732;-62
2022/07/09 12:33:34;;;;;;;3.70;2.90;;;21.80;99.90;;;;;;4937220;29;20234;-64
2022/07/09 12:36:02;;;;;;;7.43;4.20;;;21.40;99.90;;;;;;4952576;29;20208;-64
2022/07/09 12:38:29;;;;;;;8.73;6.03;;;20.50;99.90;;;;;;4953854;29;20229;-63
2022/07/09 12:40:55;;;;;;;10.10;8.10;;;19.40;1.00;;;;;;4953705;28;20751;-65
2022/07/09 12:43:24;;;;;;;10.17;8.33;;;19.30;99.90;;;;;;4953887;29;20634;-66
2022/07/09 12:45:50;;;;;;;11.20;8.30;;;19.30;99.90;;;;;;4953676;29;20225;-63